sensor_id;sensor_type;location;lat;lon;timestamp;P1;durP1;ratioP1;P2;durP2;ratioP2
23148;SDS011;11743;51.228;22.498;2022-08-25T00:00:03;13.75;;;7.22;;
23148;SDS011;11743;51.228;22.498;2022-08-25T00:00:26;15.55;;;7.53;;
23148;SDS011;11743;51.228;22.498;2022-08-25T00:00:48;13.50;;;7.30;;
23148;SDS011;11743;51.228;22.498;2022-08-25T00:01:30;15.45;;;7.70;;
23148;SDS011;11743;51.228;22.498;2022-08-25T00:01:58;13.48;;;6.97;;
23148;SDS011;11743;51.228;22.498;2022-08-25T00:02:23;11.88;;;7.22;;
23148;SDS011;11743;51.228;22.498;2022-08-25T00:02:47;12.38;;;7.15;;
23148;SDS011;11743;51.228;22.498;2022-08-25T00:03:16;15.25;;;7.80;;
23148;SDS011;11743;51.228;22.498;2022-08-25T00:03:41;13.77;;;7.53;;
23148;SDS011;11743;51.228;22.498;2022-08-25T00:04:05;15.98;;;7.82;;
23148;SDS011;11743;51.228;22.498;2022-08-25T00:04:31;21.98;;;8.00;;
23148;SDS011;11743;51.228;22.498;2022-08-25T00:04:57;17.20;;;8.40;;
23148;SDS011;11743;51.228;22.498;2022-08-25T00:05:20;16.73;;;7.60;;
23148;SDS011;11743;51.228;22.498;2022-08-25T00:05:47;13.43;;;6.90;;
23148;SDS011;11743;51.228;22.498;2022-08-25T00:06:10;13.27;;;7.45;;
23148;SDS011;11743;51.228;22.498;2022-08-25T00:06:33;19.27;;;8.50;;
23148;SDS011;11743;51.228;22.498;2022-08-25T00:06:55;17.70;;;7.72;;
23148;SDS011;11743;51.228;22.498;2022-08-25T00:07:23;15.85;;;8.02;;
23148;SDS011;11743;51.228;22.498;2022-08-25T00:07:44;12.23;;;7.63;;
23148;SDS011;11743;51.228;22.498;2022-08-25T00:08:06;14.52;;;7.60;;
23148;SDS011;11743;51.228;22.498;2022-08-25T00:08:28;15.82;;;7.50;;
23148;SDS011;11743;51.228;22.498;2022-08-25T00:08:50;13.52;;;7.25;;
23148;SDS011;11743;51.228;22.498;2022-08-25T00:09:14;13.27;;;7.53;;
23148;SDS011;11743;51.228;22.498;2022-08-25T00:09:39;14.52;;;7.72;;
23148;SDS011;11743;51.228;22.498;2022-08-25T00:10:01;16.63;;;8.00;;
23148;SDS011;11743;51.228;22.498;2022-08-25T00:10:24;12.55;;;7.15;;
23148;SDS011;11743;51.228;22.498;2022-08-25T00:10:49;13.55;;;7.68;;
23148;SDS011;11743;51.228;22.498;2022-08-25T00:11:24;20.00;;;7.88;;
23148;SDS011;11743;51.228;22.498;2022-08-25T00:11:49;16.05;;;8.13;;
23148;SDS011;11743;51.228;22.498;2022-08-25T00:12:11;15.68;;;7.85;;
23148;SDS011;11743;51.228;22.498;2022-08-25T00:12:34;17.25;;;8.13;;
23148;SDS011;11743;51.228;22.498;2022-08-25T00:12:55;14.43;;;7.22;;
23148;SDS011;11743;51.228;22.498;2022-08-25T00:13:17;14.02;;;7.10;;
23148;SDS011;11743;51.228;22.498;2022-08-25T00:13:41;17.90;;;7.38;;
23148;SDS011;11743;51.228;22.498;2022-08-25T00:14:06;16.55;;;8.00;;
23148;SDS011;11743;51.228;22.498;2022-08-25T00:14:33;15.45;;;7.78;;
23148;SDS011;11743;51.228;22.498;2022-08-25T00:14:57;11.02;;;7.18;;
23148;SDS011;11743;51.228;22.498;2022-08-25T00:15:20;13.13;;;6.90;;
23148;SDS011;11743;51.228;22.498;2022-08-25T00:15:42;14.82;;;7.32;;
23148;SDS011;11743;51.228;22.498;2022-08-25T00:16:05;15.32;;;7.30;;
23148;SDS011;11743;51.228;22.498;2022-08-25T00:16:28;17.60;;;7.78;;
23148;SDS011;11743;51.228;22.498;2022-08-25T00:16:51;15.45;;;7.80;;
23148;SDS011;11743;51.228;22.498;2022-08-25T00:17:16;18.88;;;7.65;;
23148;SDS011;11743;51.228;22.498;2022-08-25T00:17:38;12.85;;;7.07;;
23148;SDS011;11743;51.228;22.498;2022-08-25T00:18:00;14.13;;;7.07;;
23148;SDS011;11743;51.228;22.498;2022-08-25T00:18:23;13.32;;;7.00;;
23148;SDS011;11743;51.228;22.498;2022-08-25T00:18:47;11.27;;;6.50;;
23148;SDS011;11743;51.228;22.498;2022-08-25T00:19:17;10.77;;;6.80;;
23148;SDS011;11743;51.228;22.498;2022-08-25T00:19:41;12.50;;;7.40;;
23148;SDS011;11743;51.228;22.498;2022-08-25T00:20:04;14.27;;;7.47;;
23148;SDS011;11743;51.228;22.498;2022-08-25T00:20:27;13.70;;;7.57;;
23148;SDS011;11743;51.228;22.498;2022-08-25T00:20:49;13.00;;;7.63;;
23148;SDS011;11743;51.228;22.498;2022-08-25T00:21:12;12.05;;;7.10;;
23148;SDS011;11743;51.228;22.498;2022-08-25T00:21:35;13.30;;;7.10;;
23148;SDS011;11743;51.228;22.498;2022-08-25T00:21:58;13.93;;;7.00;;
23148;SDS011;11743;51.228;22.498;2022-08-25T00:22:22;15.07;;;7.25;;
23148;SDS011;11743;51.228;22.498;2022-08-25T00:22:43;16.70;;;7.43;;
23148;SDS011;11743;51.228;22.498;2022-08-25T00:23:06;15.07;;;7.07;;
23148;SDS011;11743;51.228;22.498;2022-08-25T00:23:28;11.52;;;6.93;;
23148;SDS011;11743;51.228;22.498;2022-08-25T00:23:50;14.90;;;7.25;;
23148;SDS011;11743;51.228;22.498;2022-08-25T00:24:13;12.77;;;6.97;;
23148;SDS011;11743;51.228;22.498;2022-08-25T00:24:39;16.20;;;7.57;;
23148;SDS011;11743;51.228;22.498;2022-08-25T00:25:03;14.80;;;7.50;;
23148;SDS011;11743;51.228;22.498;2022-08-25T00:25:25;14.32;;;7.05;;
23148;SDS011;11743;51.228;22.498;2022-08-25T00:25:48;14.20;;;6.53;;
23148;SDS011;11743;51.228;22.498;2022-08-25T00:26:11;14.65;;;7.18;;
23148;SDS011;11743;51.228;22.498;2022-08-25T00:26:33;12.77;;;7.30;;
23148;SDS011;11743;51.228;22.498;2022-08-25T00:26:58;12.80;;;7.00;;
23148;SDS011;11743;51.228;22.498;2022-08-25T00:27:22;16.85;;;7.32;;
23148;SDS011;11743;51.228;22.498;2022-08-25T00:27:44;12.93;;;7.32;;
23148;SDS011;11743;51.228;22.498;2022-08-25T00:28:07;16.77;;;7.47;;
23148;SDS011;11743;51.228;22.498;2022-08-25T00:28:30;14.43;;;7.43;;
23148;SDS011;11743;51.228;22.498;2022-08-25T00:28:53;14.45;;;7.22;;
23148;SDS011;11743;51.228;22.498;2022-08-25T00:29:22;13.20;;;7.30;;
23148;SDS011;11743;51.228;22.498;2022-08-25T00:29:47;14.50;;;7.47;;
23148;SDS011;11743;51.228;22.498;2022-08-25T00:30:10;11.73;;;7.25;;
23148;SDS011;11743;51.228;22.498;2022-08-25T00:30:37;13.68;;;7.32;;
23148;SDS011;11743;51.228;22.498;2022-08-25T00:30:59;14.75;;;7.53;;
23148;SDS011;11743;51.228;22.498;2022-08-25T00:31:22;12.73;;;7.47;;
23148;SDS011;11743;51.228;22.498;2022-08-25T00:31:57;15.73;;;7.10;;
23148;SDS011;11743;51.228;22.498;2022-08-25T00:32:20;13.73;;;7.38;;
23148;SDS011;11743;51.228;22.498;2022-08-25T00:32:45;11.55;;;7.05;;
23148;SDS011;11743;51.228;22.498;2022-08-25T00:33:17;12.43;;;7.35;;
23148;SDS011;11743;51.228;22.498;2022-08-25T00:33:39;13.52;;;7.60;;
23148;SDS011;11743;51.228;22.498;2022-08-25T00:34:09;15.82;;;7.63;;
23148;SDS011;11743;51.228;22.498;2022-08-25T00:34:46;14.50;;;7.60;;
23148;SDS011;11743;51.228;22.498;2022-08-25T00:35:08;17.52;;;8.00;;
23148;SDS011;11743;51.228;22.498;2022-08-25T00:35:31;13.98;;;7.60;;
23148;SDS011;11743;51.228;22.498;2022-08-25T00:35:53;13.40;;;7.60;;
23148;SDS011;11743;51.228;22.498;2022-08-25T00:36:16;13.98;;;7.38;;
23148;SDS011;11743;51.228;22.498;2022-08-25T00:36:40;17.58;;;7.80;;
23148;SDS011;11743;51.228;22.498;2022-08-25T00:37:04;15.48;;;7.68;;
23148;SDS011;11743;51.228;22.498;2022-08-25T00:37:29;15.25;;;7.72;;
23148;SDS011;11743;51.228;22.498;2022-08-25T00:37:51;17.30;;;8.23;;
23148;SDS011;11743;51.228;22.498;2022-08-25T00:38:14;16.08;;;8.15;;
23148;SDS011;11743;51.228;22.498;2022-08-25T00:38:40;14.25;;;7.68;;
23148;SDS011;11743;51.228;22.498;2022-08-25T00:39:04;15.95;;;7.95;;
23148;SDS011;11743;51.228;22.498;2022-08-25T00:39:28;18.67;;;8.15;;
23148;SDS011;11743;51.228;22.498;2022-08-25T00:39:50;18.75;;;8.60;;
23148;SDS011;11743;51.228;22.498;2022-08-25T00:40:13;14.50;;;7.72;;
23148;SDS011;11743;51.228;22.498;2022-08-25T00:40:36;13.98;;;7.47;;
23148;SDS011;11743;51.228;22.498;2022-08-25T00:40:59;16.00;;;8.00;;
23148;SDS011;11743;51.228;22.498;2022-08-25T00:41:27;12.80;;;7.13;;
23148;SDS011;11743;51.228;22.498;2022-08-25T00:41:50;13.63;;;7.50;;
23148;SDS011;11743;51.228;22.498;2022-08-25T00:42:14;16.27;;;7.78;;
23148;SDS011;11743;51.228;22.498;2022-08-25T00:42:36;16.20;;;8.02;;
23148;SDS011;11743;51.228;22.498;2022-08-25T00:42:58;18.23;;;8.68;;
23148;SDS011;11743;51.228;22.498;2022-08-25T00:43:21;13.93;;;7.80;;
23148;SDS011;11743;51.228;22.498;2022-08-25T00:43:45;13.63;;;8.23;;
23148;SDS011;11743;51.228;22.498;2022-08-25T00:44:11;15.07;;;7.68;;
23148;SDS011;11743;51.228;22.498;2022-08-25T00:44:34;18.55;;;8.32;;
23148;SDS011;11743;51.228;22.498;2022-08-25T00:44:56;13.77;;;8.13;;
23148;SDS011;11743;51.228;22.498;2022-08-25T00:45:18;16.27;;;8.00;;
23148;SDS011;11743;51.228;22.498;2022-08-25T00:45:40;18.58;;;8.15;;
23148;SDS011;11743;51.228;22.498;2022-08-25T00:46:05;14.00;;;7.32;;
23148;SDS011;11743;51.228;22.498;2022-08-25T00:46:33;12.82;;;7.68;;
23148;SDS011;11743;51.228;22.498;2022-08-25T00:46:59;14.27;;;7.63;;
23148;SDS011;11743;51.228;22.498;2022-08-25T00:47:22;17.27;;;8.35;;
23148;SDS011;11743;51.228;22.498;2022-08-25T00:47:44;19.08;;;8.15;;
23148;SDS011;11743;51.228;22.498;2022-08-25T00:48:07;14.88;;;8.38;;
23148;SDS011;11743;51.228;22.498;2022-08-25T00:48:28;18.40;;;8.98;;
23148;SDS011;11743;51.228;22.498;2022-08-25T00:48:58;18.23;;;8.23;;
23148;SDS011;11743;51.228;22.498;2022-08-25T00:49:25;13.40;;;7.70;;
23148;SDS011;11743;51.228;22.498;2022-08-25T00:49:55;15.88;;;8.48;;
23148;SDS011;11743;51.228;22.498;2022-08-25T00:50:19;15.02;;;8.20;;
23148;SDS011;11743;51.228;22.498;2022-08-25T00:50:46;15.75;;;7.80;;
23148;SDS011;11743;51.228;22.498;2022-08-25T00:51:09;16.80;;;8.18;;
23148;SDS011;11743;51.228;22.498;2022-08-25T00:51:35;16.48;;;8.43;;
23148;SDS011;11743;51.228;22.498;2022-08-25T00:52:53;17.00;;;8.75;;
23148;SDS011;11743;51.228;22.498;2022-08-25T00:53:18;18.00;;;7.88;;
23148;SDS011;11743;51.228;22.498;2022-08-25T00:53:42;16.00;;;7.70;;
23148;SDS011;11743;51.228;22.498;2022-08-25T00:54:04;18.00;;;8.60;;
23148;SDS011;11743;51.228;22.498;2022-08-25T00:54:30;17.60;;;8.20;;
23148;SDS011;11743;51.228;22.498;2022-08-25T00:55:36;20.00;;;9.25;;
23148;SDS011;11743;51.228;22.498;2022-08-25T00:56:00;15.93;;;8.18;;
23148;SDS011;11743;51.228;22.498;2022-08-25T00:56:23;17.13;;;8.43;;
23148;SDS011;11743;51.228;22.498;2022-08-25T00:56:45;15.18;;;8.13;;
23148;SDS011;11743;51.228;22.498;2022-08-25T00:57:08;14.85;;;7.88;;
23148;SDS011;11743;51.228;22.498;2022-08-25T00:57:34;14.98;;;8.10;;
23148;SDS011;11743;51.228;22.498;2022-08-25T00:58:02;15.70;;;8.05;;
23148;SDS011;11743;51.228;22.498;2022-08-25T00:58:34;21.25;;;8.52;;
23148;SDS011;11743;51.228;22.498;2022-08-25T00:58:58;16.42;;;8.80;;
23148;SDS011;11743;51.228;22.498;2022-08-25T00:59:21;14.05;;;7.78;;
23148;SDS011;11743;51.228;22.498;2022-08-25T00:59:44;13.35;;;7.88;;
23148;SDS011;11743;51.228;22.498;2022-08-25T01:00:09;13.68;;;8.23;;
23148;SDS011;11743;51.228;22.498;2022-08-25T01:00:37;15.30;;;8.45;;
23148;SDS011;11743;51.228;22.498;2022-08-25T01:01:02;18.35;;;9.32;;
23148;SDS011;11743;51.228;22.498;2022-08-25T01:01:24;13.77;;;8.73;;
23148;SDS011;11743;51.228;22.498;2022-08-25T01:01:47;13.70;;;8.45;;
23148;SDS011;11743;51.228;22.498;2022-08-25T01:02:13;15.30;;;8.32;;
23148;SDS011;11743;51.228;22.498;2022-08-25T01:02:36;13.30;;;8.32;;
23148;SDS011;11743;51.228;22.498;2022-08-25T01:02:59;15.70;;;8.52;;
23148;SDS011;11743;51.228;22.498;2022-08-25T01:03:22;18.05;;;8.52;;
23148;SDS011;11743;51.228;22.498;2022-08-25T01:03:53;16.80;;;8.10;;
23148;SDS011;11743;51.228;22.498;2022-08-25T01:04:15;14.52;;;8.07;;
23148;SDS011;11743;51.228;22.498;2022-08-25T01:04:38;15.77;;;8.40;;
23148;SDS011;11743;51.228;22.498;2022-08-25T01:05:00;18.85;;;8.38;;
23148;SDS011;11743;51.228;22.498;2022-08-25T01:05:22;24.27;;;8.07;;
23148;SDS011;11743;51.228;22.498;2022-08-25T01:05:45;12.77;;;8.00;;
23148;SDS011;11743;51.228;22.498;2022-08-25T01:06:08;14.55;;;8.30;;
23148;SDS011;11743;51.228;22.498;2022-08-25T01:06:33;16.73;;;8.23;;
23148;SDS011;11743;51.228;22.498;2022-08-25T01:06:58;18.88;;;8.40;;
23148;SDS011;11743;51.228;22.498;2022-08-25T01:07:22;17.77;;;7.82;;
23148;SDS011;11743;51.228;22.498;2022-08-25T01:07:44;16.20;;;7.80;;
23148;SDS011;11743;51.228;22.498;2022-08-25T01:08:07;17.98;;;8.45;;
23148;SDS011;11743;51.228;22.498;2022-08-25T01:08:30;14.15;;;8.20;;
23148;SDS011;11743;51.228;22.498;2022-08-25T01:08:53;16.73;;;8.07;;
23148;SDS011;11743;51.228;22.498;2022-08-25T01:09:15;14.52;;;8.73;;
23148;SDS011;11743;51.228;22.498;2022-08-25T01:09:39;15.88;;;8.15;;
23148;SDS011;11743;51.228;22.498;2022-08-25T01:10:03;14.87;;;8.00;;
23148;SDS011;11743;51.228;22.498;2022-08-25T01:10:28;15.95;;;8.02;;
23148;SDS011;11743;51.228;22.498;2022-08-25T01:10:51;13.25;;;8.05;;
23148;SDS011;11743;51.228;22.498;2022-08-25T01:11:13;16.25;;;8.70;;
23148;SDS011;11743;51.228;22.498;2022-08-25T01:11:35;14.40;;;8.18;;
23148;SDS011;11743;51.228;22.498;2022-08-25T01:11:57;13.82;;;7.72;;
23148;SDS011;11743;51.228;22.498;2022-08-25T01:12:20;17.27;;;8.00;;
23148;SDS011;11743;51.228;22.498;2022-08-25T01:12:42;14.93;;;7.82;;
23148;SDS011;11743;51.228;22.498;2022-08-25T01:13:06;14.68;;;8.32;;
23148;SDS011;11743;51.228;22.498;2022-08-25T01:13:51;13.70;;;8.05;;
23148;SDS011;11743;51.228;22.498;2022-08-25T01:14:16;14.00;;;7.40;;
23148;SDS011;11743;51.228;22.498;2022-08-25T01:14:40;17.00;;;8.27;;
23148;SDS011;11743;51.228;22.498;2022-08-25T01:15:06;11.65;;;7.53;;
23148;SDS011;11743;51.228;22.498;2022-08-25T01:15:30;19.52;;;8.23;;
23148;SDS011;11743;51.228;22.498;2022-08-25T01:15:58;13.95;;;7.65;;
23148;SDS011;11743;51.228;22.498;2022-08-25T01:16:20;13.63;;;7.43;;
23148;SDS011;11743;51.228;22.498;2022-08-25T01:16:43;13.63;;;7.60;;
23148;SDS011;11743;51.228;22.498;2022-08-25T01:17:05;17.15;;;8.75;;
23148;SDS011;11743;51.228;22.498;2022-08-25T01:18:12;15.68;;;7.85;;
23148;SDS011;11743;51.228;22.498;2022-08-25T01:18:53;16.95;;;8.48;;
23148;SDS011;11743;51.228;22.498;2022-08-25T01:19:18;13.82;;;8.13;;
23148;SDS011;11743;51.228;22.498;2022-08-25T01:19:41;15.48;;;8.10;;
23148;SDS011;11743;51.228;22.498;2022-08-25T01:20:03;14.10;;;7.65;;
23148;SDS011;11743;51.228;22.498;2022-08-25T01:20:25;14.32;;;7.80;;
23148;SDS011;11743;51.228;22.498;2022-08-25T01:20:50;16.88;;;7.80;;
23148;SDS011;11743;51.228;22.498;2022-08-25T01:21:14;18.63;;;8.40;;
23148;SDS011;11743;51.228;22.498;2022-08-25T01:21:39;15.02;;;7.88;;
23148;SDS011;11743;51.228;22.498;2022-08-25T01:22:06;17.40;;;8.70;;
23148;SDS011;11743;51.228;22.498;2022-08-25T01:22:28;13.63;;;8.38;;
23148;SDS011;11743;51.228;22.498;2022-08-25T01:22:52;14.70;;;7.78;;
23148;SDS011;11743;51.228;22.498;2022-08-25T01:23:15;19.90;;;8.68;;
23148;SDS011;11743;51.228;22.498;2022-08-25T01:23:37;16.02;;;8.50;;
23148;SDS011;11743;51.228;22.498;2022-08-25T01:23:59;17.05;;;8.55;;
23148;SDS011;11743;51.228;22.498;2022-08-25T01:25:03;15.85;;;8.52;;
23148;SDS011;11743;51.228;22.498;2022-08-25T01:25:47;16.60;;;8.70;;
23148;SDS011;11743;51.228;22.498;2022-08-25T01:26:29;15.45;;;8.30;;
23148;SDS011;11743;51.228;22.498;2022-08-25T01:26:53;14.48;;;8.43;;
23148;SDS011;11743;51.228;22.498;2022-08-25T01:27:15;14.70;;;8.07;;
23148;SDS011;11743;51.228;22.498;2022-08-25T01:27:37;15.20;;;8.18;;
23148;SDS011;11743;51.228;22.498;2022-08-25T01:27:59;18.00;;;8.60;;
23148;SDS011;11743;51.228;22.498;2022-08-25T01:28:21;13.15;;;8.15;;
23148;SDS011;11743;51.228;22.498;2022-08-25T01:28:43;15.77;;;8.30;;
23148;SDS011;11743;51.228;22.498;2022-08-25T01:29:26;16.80;;;8.45;;
23148;SDS011;11743;51.228;22.498;2022-08-25T01:29:49;15.50;;;8.32;;
23148;SDS011;11743;51.228;22.498;2022-08-25T01:30:11;12.32;;;7.88;;
23148;SDS011;11743;51.228;22.498;2022-08-25T01:30:34;18.17;;;8.43;;
23148;SDS011;11743;51.228;22.498;2022-08-25T01:30:57;14.18;;;8.00;;
23148;SDS011;11743;51.228;22.498;2022-08-25T01:31:19;14.93;;;8.10;;
23148;SDS011;11743;51.228;22.498;2022-08-25T01:31:44;15.90;;;7.85;;
23148;SDS011;11743;51.228;22.498;2022-08-25T01:32:08;18.25;;;8.57;;
23148;SDS011;11743;51.228;22.498;2022-08-25T01:32:32;15.48;;;7.80;;
23148;SDS011;11743;51.228;22.498;2022-08-25T01:32:55;13.35;;;7.97;;
23148;SDS011;11743;51.228;22.498;2022-08-25T01:33:17;15.93;;;8.65;;
23148;SDS011;11743;51.228;22.498;2022-08-25T01:33:39;14.60;;;7.97;;
23148;SDS011;11743;51.228;22.498;2022-08-25T01:34:03;14.90;;;7.63;;
23148;SDS011;11743;51.228;22.498;2022-08-25T01:34:29;15.15;;;7.97;;
23148;SDS011;11743;51.228;22.498;2022-08-25T01:34:52;12.80;;;7.35;;
23148;SDS011;11743;51.228;22.498;2022-08-25T01:35:15;15.15;;;8.60;;
23148;SDS011;11743;51.228;22.498;2022-08-25T01:35:37;15.57;;;8.38;;
23148;SDS011;11743;51.228;22.498;2022-08-25T01:36:00;15.65;;;7.97;;
23148;SDS011;11743;51.228;22.498;2022-08-25T01:36:23;16.92;;;7.72;;
23148;SDS011;11743;51.228;22.498;2022-08-25T01:36:47;14.50;;;7.82;;
23148;SDS011;11743;51.228;22.498;2022-08-25T01:37:10;14.80;;;8.32;;
23148;SDS011;11743;51.228;22.498;2022-08-25T01:37:34;12.98;;;8.50;;
23148;SDS011;11743;51.228;22.498;2022-08-25T01:37:56;14.57;;;8.20;;
23148;SDS011;11743;51.228;22.498;2022-08-25T01:38:18;15.40;;;8.07;;
23148;SDS011;11743;51.228;22.498;2022-08-25T01:38:43;19.13;;;8.23;;
23148;SDS011;11743;51.228;22.498;2022-08-25T01:39:05;20.10;;;8.30;;
23148;SDS011;11743;51.228;22.498;2022-08-25T01:39:27;14.60;;;8.32;;
23148;SDS011;11743;51.228;22.498;2022-08-25T01:39:51;15.80;;;8.70;;
23148;SDS011;11743;51.228;22.498;2022-08-25T01:40:13;18.92;;;8.57;;
23148;SDS011;11743;51.228;22.498;2022-08-25T01:40:35;15.50;;;8.27;;
23148;SDS011;11743;51.228;22.498;2022-08-25T01:40:59;14.55;;;8.00;;
23148;SDS011;11743;51.228;22.498;2022-08-25T01:41:25;16.83;;;8.57;;
23148;SDS011;11743;51.228;22.498;2022-08-25T01:42:16;16.10;;;8.48;;
23148;SDS011;11743;51.228;22.498;2022-08-25T01:43:00;13.20;;;7.72;;
23148;SDS011;11743;51.228;22.498;2022-08-25T01:43:56;20.33;;;8.68;;
23148;SDS011;11743;51.228;22.498;2022-08-25T01:44:17;18.05;;;7.93;;
23148;SDS011;11743;51.228;22.498;2022-08-25T01:44:41;17.08;;;8.25;;
23148;SDS011;11743;51.228;22.498;2022-08-25T01:45:05;16.33;;;8.52;;
23148;SDS011;11743;51.228;22.498;2022-08-25T01:45:30;16.10;;;8.70;;
23148;SDS011;11743;51.228;22.498;2022-08-25T01:45:56;14.48;;;8.15;;
23148;SDS011;11743;51.228;22.498;2022-08-25T01:46:18;15.63;;;8.63;;
23148;SDS011;11743;51.228;22.498;2022-08-25T01:46:40;19.20;;;8.73;;
23148;SDS011;11743;51.228;22.498;2022-08-25T01:47:03;16.02;;;8.40;;
23148;SDS011;11743;51.228;22.498;2022-08-25T01:47:27;14.10;;;7.85;;
23148;SDS011;11743;51.228;22.498;2022-08-25T01:47:50;15.38;;;8.60;;
23148;SDS011;11743;51.228;22.498;2022-08-25T01:48:13;14.80;;;8.52;;
23148;SDS011;11743;51.228;22.498;2022-08-25T01:48:36;18.15;;;8.38;;
23148;SDS011;11743;51.228;22.498;2022-08-25T01:48:59;13.57;;;8.02;;
23148;SDS011;11743;51.228;22.498;2022-08-25T01:49:27;14.70;;;8.02;;
23148;SDS011;11743;51.228;22.498;2022-08-25T01:49:48;13.90;;;7.57;;
23148;SDS011;11743;51.228;22.498;2022-08-25T01:50:10;14.95;;;8.75;;
23148;SDS011;11743;51.228;22.498;2022-08-25T01:50:32;13.43;;;7.85;;
23148;SDS011;11743;51.228;22.498;2022-08-25T01:50:55;13.57;;;7.50;;
23148;SDS011;11743;51.228;22.498;2022-08-25T01:51:18;15.68;;;8.00;;
23148;SDS011;11743;51.228;22.498;2022-08-25T01:51:47;16.30;;;7.88;;
23148;SDS011;11743;51.228;22.498;2022-08-25T01:52:24;14.82;;;7.90;;
23148;SDS011;11743;51.228;22.498;2022-08-25T01:53:23;15.97;;;8.37;;
23148;SDS011;11743;51.228;22.498;2022-08-25T01:53:48;15.43;;;8.57;;
23148;SDS011;11743;51.228;22.498;2022-08-25T01:54:11;13.25;;;8.27;;
23148;SDS011;11743;51.228;22.498;2022-08-25T01:54:32;16.52;;;7.85;;
23148;SDS011;11743;51.228;22.498;2022-08-25T01:54:54;16.40;;;8.10;;
23148;SDS011;11743;51.228;22.498;2022-08-25T01:55:17;15.50;;;8.38;;
23148;SDS011;11743;51.228;22.498;2022-08-25T01:55:40;15.02;;;8.52;;
23148;SDS011;11743;51.228;22.498;2022-08-25T01:56:23;19.40;;;8.77;;
23148;SDS011;11743;51.228;22.498;2022-08-25T01:56:45;15.02;;;8.40;;
23148;SDS011;11743;51.228;22.498;2022-08-25T01:57:08;17.45;;;9.07;;
23148;SDS011;11743;51.228;22.498;2022-08-25T01:57:30;15.38;;;8.10;;
23148;SDS011;11743;51.228;22.498;2022-08-25T01:57:51;16.60;;;8.43;;
23148;SDS011;11743;51.228;22.498;2022-08-25T01:58:13;16.23;;;8.90;;
23148;SDS011;11743;51.228;22.498;2022-08-25T01:58:37;17.95;;;9.10;;
23148;SDS011;11743;51.228;22.498;2022-08-25T01:59:00;17.50;;;9.18;;
23148;SDS011;11743;51.228;22.498;2022-08-25T01:59:22;14.15;;;8.55;;
23148;SDS011;11743;51.228;22.498;2022-08-25T01:59:45;16.27;;;8.25;;
23148;SDS011;11743;51.228;22.498;2022-08-25T02:00:08;15.80;;;8.52;;
23148;SDS011;11743;51.228;22.498;2022-08-25T02:00:33;17.10;;;8.38;;
23148;SDS011;11743;51.228;22.498;2022-08-25T02:00:55;22.70;;;9.07;;
23148;SDS011;11743;51.228;22.498;2022-08-25T02:01:20;23.35;;;9.13;;
23148;SDS011;11743;51.228;22.498;2022-08-25T02:01:43;16.77;;;9.25;;
23148;SDS011;11743;51.228;22.498;2022-08-25T02:02:06;13.82;;;8.35;;
23148;SDS011;11743;51.228;22.498;2022-08-25T02:02:30;17.55;;;8.90;;
23148;SDS011;11743;51.228;22.498;2022-08-25T02:02:53;19.30;;;8.80;;
23148;SDS011;11743;51.228;22.498;2022-08-25T02:03:16;18.83;;;9.35;;
23148;SDS011;11743;51.228;22.498;2022-08-25T02:03:40;13.80;;;8.75;;
23148;SDS011;11743;51.228;22.498;2022-08-25T02:04:03;13.07;;;8.57;;
23148;SDS011;11743;51.228;22.498;2022-08-25T02:04:28;15.23;;;8.68;;
23148;SDS011;11743;51.228;22.498;2022-08-25T02:04:52;16.60;;;8.98;;
23148;SDS011;11743;51.228;22.498;2022-08-25T02:05:15;16.33;;;9.13;;
23148;SDS011;11743;51.228;22.498;2022-08-25T02:05:43;15.32;;;9.40;;
23148;SDS011;11743;51.228;22.498;2022-08-25T02:06:10;12.55;;;9.15;;
23148;SDS011;11743;51.228;22.498;2022-08-25T02:06:33;15.23;;;8.55;;
23148;SDS011;11743;51.228;22.498;2022-08-25T02:06:55;13.73;;;8.30;;
23148;SDS011;11743;51.228;22.498;2022-08-25T02:07:18;13.68;;;8.13;;
23148;SDS011;11743;51.228;22.498;2022-08-25T02:07:40;13.90;;;8.65;;
23148;SDS011;11743;51.228;22.498;2022-08-25T02:08:03;14.88;;;9.27;;
23148;SDS011;11743;51.228;22.498;2022-08-25T02:08:25;18.02;;;9.70;;
23148;SDS011;11743;51.228;22.498;2022-08-25T02:08:57;15.30;;;8.65;;
23148;SDS011;11743;51.228;22.498;2022-08-25T02:09:22;16.15;;;8.75;;
23148;SDS011;11743;51.228;22.498;2022-08-25T02:09:44;13.35;;;8.63;;
23148;SDS011;11743;51.228;22.498;2022-08-25T02:10:07;15.65;;;9.00;;
23148;SDS011;11743;51.228;22.498;2022-08-25T02:10:31;17.17;;;9.13;;
23148;SDS011;11743;51.228;22.498;2022-08-25T02:10:53;17.05;;;9.00;;
23148;SDS011;11743;51.228;22.498;2022-08-25T02:11:15;12.85;;;8.45;;
23148;SDS011;11743;51.228;22.498;2022-08-25T02:11:38;16.42;;;8.30;;
23148;SDS011;11743;51.228;22.498;2022-08-25T02:12:02;15.18;;;9.05;;
23148;SDS011;11743;51.228;22.498;2022-08-25T02:12:24;13.27;;;8.80;;
23148;SDS011;11743;51.228;22.498;2022-08-25T02:12:46;13.63;;;8.55;;
23148;SDS011;11743;51.228;22.498;2022-08-25T02:13:09;23.25;;;8.45;;
23148;SDS011;11743;51.228;22.498;2022-08-25T02:13:31;19.92;;;8.50;;
23148;SDS011;11743;51.228;22.498;2022-08-25T02:13:53;17.15;;;8.77;;
23148;SDS011;11743;51.228;22.498;2022-08-25T02:14:15;16.30;;;8.82;;
23148;SDS011;11743;51.228;22.498;2022-08-25T02:14:38;18.35;;;9.13;;
23148;SDS011;11743;51.228;22.498;2022-08-25T02:15:02;17.45;;;9.20;;
23148;SDS011;11743;51.228;22.498;2022-08-25T02:15:26;14.10;;;8.57;;
23148;SDS011;11743;51.228;22.498;2022-08-25T02:15:49;14.40;;;8.80;;
23148;SDS011;11743;51.228;22.498;2022-08-25T02:16:17;18.63;;;8.80;;
23148;SDS011;11743;51.228;22.498;2022-08-25T02:16:44;14.80;;;8.33;;
23148;SDS011;11743;51.228;22.498;2022-08-25T02:17:08;13.88;;;8.90;;
23148;SDS011;11743;51.228;22.498;2022-08-25T02:17:30;14.68;;;8.65;;
23148;SDS011;11743;51.228;22.498;2022-08-25T02:17:52;14.68;;;8.98;;
23148;SDS011;11743;51.228;22.498;2022-08-25T02:18:14;16.40;;;8.93;;
23148;SDS011;11743;51.228;22.498;2022-08-25T02:18:36;17.10;;;8.70;;
23148;SDS011;11743;51.228;22.498;2022-08-25T02:18:58;15.82;;;8.75;;
23148;SDS011;11743;51.228;22.498;2022-08-25T02:19:21;16.20;;;8.57;;
23148;SDS011;11743;51.228;22.498;2022-08-25T02:19:44;16.35;;;8.77;;
23148;SDS011;11743;51.228;22.498;2022-08-25T02:20:07;15.52;;;8.77;;
23148;SDS011;11743;51.228;22.498;2022-08-25T02:20:29;14.55;;;8.10;;
23148;SDS011;11743;51.228;22.498;2022-08-25T02:20:51;14.23;;;8.48;;
23148;SDS011;11743;51.228;22.498;2022-08-25T02:21:14;15.13;;;9.00;;
23148;SDS011;11743;51.228;22.498;2022-08-25T02:21:36;17.33;;;8.65;;
23148;SDS011;11743;51.228;22.498;2022-08-25T02:21:59;15.32;;;8.38;;
23148;SDS011;11743;51.228;22.498;2022-08-25T02:22:22;17.58;;;9.20;;
23148;SDS011;11743;51.228;22.498;2022-08-25T02:22:44;17.58;;;9.02;;
23148;SDS011;11743;51.228;22.498;2022-08-25T02:23:16;14.57;;;8.77;;
23148;SDS011;11743;51.228;22.498;2022-08-25T02:23:39;16.20;;;8.63;;
23148;SDS011;11743;51.228;22.498;2022-08-25T02:24:02;18.33;;;8.93;;
23148;SDS011;11743;51.228;22.498;2022-08-25T02:24:24;15.43;;;8.73;;
23148;SDS011;11743;51.228;22.498;2022-08-25T02:24:46;15.20;;;8.52;;
23148;SDS011;11743;51.228;22.498;2022-08-25T02:25:08;17.23;;;9.13;;
23148;SDS011;11743;51.228;22.498;2022-08-25T02:25:31;16.65;;;8.68;;
23148;SDS011;11743;51.228;22.498;2022-08-25T02:25:53;14.30;;;9.00;;